Time;durP1;ratioP1;P1;durP2;ratioP2;P2;SDS_P1;SDS_P2;PMS_P1;PMS_P2;Temp;Humidity;BMP_temperature;BMP_pressure;BME280_temperature;BME280_humidity;BME280_pressure;Samples;Min_cycle;Max_cycle;Signal;HPM_P1;HPM_P2
2023/06/01 00:00:09;;;;;;;11.88;5.55;;;11.30;99.90;;;;;;5030004;28;20168;-82
2023/06/01 00:02:35;;;;;;;14.13;4.55;;;11.30;99.90;;;;;;5015777;28;20875;-82
2023/06/01 00:05:01;;;;;;;11.25;5.07;;;11.30;99.90;;;;;;5015503;28;20041;-82
2023/06/01 00:07:29;;;;;;;10.40;4.70;;;11.30;99.90;;;;;;5014473;28;20373;-82
2023/06/01 00:09:55;;;;;;;14.77;5.88;;;11.40;99.90;;;;;;5032319;28;20152;-83
2023/06/01 00:12:21;;;;;;;10.88;5.15;;;11.30;99.90;;;;;;5010713;28;20112;-81
2023/06/01 00:14:47;;;;;;;12.63;5.18;;;11.40;99.90;;;;;;5015393;28;20123;-82
2023/06/01 00:17:13;;;;;;;14.35;6.30;;;11.40;99.90;;;;;;5029966;28;20436;-82
2023/06/01 00:19:38;;;;;;;10.88;5.00;;;11.50;99.90;;;;;;5014912;28;20473;-82
2023/06/01 00:22:06;;;;;;;9.90;5.68;;;11.50;99.90;;;;;;5031104;28;20101;-82
2023/06/01 00:24:33;;;;;;;10.60;5.00;;;11.50;99.90;;;;;;5012908;28;20493;-80
2023/06/01 00:26:58;;;;;;;13.57;4.95;;;11.40;99.90;;;;;;5012864;28;20057;-80
2023/06/01 00:29:24;;;;;;;15.23;5.10;;;11.50;99.90;;;;;;5045454;28;20033;-79
2023/06/01 00:31:50;;;;;;;12.32;5.40;;;11.40;99.90;;;;;;5048867;28;20050;-78
2023/06/01 00:34:15;;;;;;;12.70;4.68;;;11.40;99.90;;;;;;5032447;28;20038;-79
2023/06/01 00:36:41;;;;;;;17.88;5.30;;;11.40;99.90;;;;;;5033029;28;20049;-77
2023/06/01 00:39:07;;;;;;;12.23;4.95;;;11.40;99.90;;;;;;5037038;28;20048;-78
2023/06/01 00:41:33;;;;;;;10.98;5.07;;;11.40;99.90;;;;;;5050799;28;20033;-79
2023/06/01 00:43:59;;;;;;;12.45;4.65;;;11.40;99.90;;;;;;5034000;28;20037;-80
2023/06/01 00:46:26;;;;;;;10.55;4.47;;;11.40;99.90;;;;;;5048529;28;20038;-79
2023/06/01 00:48:53;;;;;;;14.25;5.05;;;11.30;99.90;;;;;;5050254;28;20037;-79
2023/06/01 00:51:19;;;;;;;12.02;5.60;;;11.30;99.90;;;;;;5050863;28;20043;-78
2023/06/01 00:53:45;;;;;;;11.85;5.38;;;11.30;99.90;;;;;;5034863;28;20045;-78
2023/06/01 00:56:14;;;;;;;13.68;5.15;;;11.30;99.90;;;;;;5033827;28;20051;-77
2023/06/01 00:58:40;;;;;;;12.80;5.65;;;11.30;99.90;;;;;;5051975;28;20025;-77
2023/06/01 01:01:07;;;;;;;13.60;5.15;;;11.40;99.90;;;;;;5049748;28;20045;-78
2023/06/01 01:03:34;;;;;;;13.73;5.57;;;11.40;99.90;;;;;;5048292;28;20047;-78
2023/06/01 01:06:22;;;;;;;11.82;5.03;;;11.30;99.90;;;;;;5032584;28;20174;-77
2023/06/01 01:09:18;;;;;;;13.13;5.55;;;11.30;99.90;;;;;;5026082;28;20045;-78
2023/06/01 01:11:55;;;;;;;13.68;5.47;;;11.30;99.90;;;;;;5047050;28;20026;-79
2023/06/01 01:14:25;;;;;;;13.48;5.53;;;11.20;99.90;;;;;;5033758;28;20128;-77
2023/06/01 01:17:26;;;;;;;16.20;5.40;;;11.20;99.90;;;;;;5031176;28;20033;-79
2023/06/01 01:19:59;;;;;;;11.20;5.38;;;11.20;99.90;;;;;;5047704;28;20087;-77
2023/06/01 01:22:40;;;;;;;15.20;5.70;;;11.20;99.90;;;;;;5032474;28;20105;-80
2023/06/01 01:25:15;;;;;;;12.77;5.55;;;11.20;99.90;;;;;;5005213;28;20052;-80
2023/06/01 01:28:08;;;;;;;12.30;5.75;;;11.20;99.90;;;;;;5013419;28;20041;-80
2023/06/01 01:30:37;;;;;;;13.93;5.68;;;11.20;99.90;;;;;;5028773;28;20103;-80
2023/06/01 01:33:04;;;;;;;11.45;6.00;;;11.20;99.90;;;;;;5007343;28;20053;-79
2023/06/01 01:35:30;;;;;;;10.88;4.97;;;11.20;99.90;;;;;;5029262;28;20719;-80
2023/06/01 01:42:00;;;;;;;15.93;5.43;;;11.20;99.90;;;;;;5028723;28;20108;-81
2023/06/01 01:44:26;;;;;;;13.25;4.95;;;11.20;99.90;;;;;;5011009;28;20045;-80
2023/06/01 01:47:06;;;;;;;11.43;4.90;;;11.20;99.90;;;;;;5028280;28;20034;-80
2023/06/01 01:49:49;;;;;;;11.98;5.47;;;11.20;99.90;;;;;;5022037;28;20054;-80
2023/06/01 01:52:34;;;;;;;13.77;5.65;;;11.20;99.90;;;;;;5029438;28;20045;-81
2023/06/01 01:55:02;;;;;;;16.70;5.55;;;11.20;99.90;;;;;;5027182;28;20044;-81
2023/06/01 01:57:29;;;;;;;10.63;5.10;;;11.20;99.90;;;;;;5012828;28;20169;-81
2023/06/01 01:59:56;;;;;;;12.20;5.10;;;11.20;99.90;;;;;;5014047;28;20037;-81
2023/06/01 02:02:22;;;;;;;18.08;5.68;;;11.20;99.90;;;;;;5014435;28;20048;-81
2023/06/01 02:04:48;;;;;;;15.05;5.95;;;11.20;99.90;;;;;;5014237;28;20034;-81
2023/06/01 02:07:17;;;;;;;13.60;5.50;;;11.20;99.90;;;;;;5025054;28;20045;-81
2023/06/01 02:09:43;;;;;;;9.35;4.78;;;11.20;99.90;;;;;;5025036;28;20441;-81
2023/06/01 02:12:12;;;;;;;16.92;6.03;;;11.20;99.90;;;;;;4997224;28;20405;-81
2023/06/01 02:14:38;;;;;;;18.13;6.07;;;11.20;99.90;;;;;;5013934;28;20046;-81
2023/06/01 02:17:05;;;;;;;13.40;5.57;;;11.20;99.90;;;;;;5012020;28;20072;-81
2023/06/01 02:19:31;;;;;;;12.07;5.15;;;11.30;99.90;;;;;;5029659;28;20084;-81
2023/06/01 02:21:57;;;;;;;12.02;5.40;;;11.20;99.90;;;;;;5028627;28;20556;-80
2023/06/01 02:24:23;;;;;;;10.82;5.50;;;11.30;99.90;;;;;;5011904;28;20050;-80
2023/06/01 02:26:51;;;;;;;13.38;5.60;;;11.20;99.90;;;;;;5012999;28;20080;-81
2023/06/01 02:29:24;;;;;;;10.93;4.97;;;11.20;99.90;;;;;;5014213;28;20037;-78
2023/06/01 02:31:51;;;;;;;16.35;5.45;;;11.20;99.90;;;;;;5035978;28;20475;-77
2023/06/01 02:34:17;;;;;;;14.75;5.28;;;11.20;99.90;;;;;;5018814;28;20042;-78
2023/06/01 02:36:45;;;;;;;13.30;4.82;;;11.20;99.90;;;;;;5019216;28;20061;-78
2023/06/01 02:39:10;;;;;;;17.23;5.97;;;11.10;99.90;;;;;;5021366;28;20045;-77
2023/06/01 02:41:36;;;;;;;13.02;5.45;;;11.10;99.90;;;;;;5033478;28;20398;-78
2023/06/01 02:44:02;;;;;;;12.05;5.30;;;11.10;99.90;;;;;;5018560;28;20041;-78
2023/06/01 02:46:28;;;;;;;13.07;5.43;;;11.10;99.90;;;;;;5035971;28;20076;-78
2023/06/01 02:48:54;;;;;;;11.00;4.75;;;11.20;99.90;;;;;;5016998;28;20112;-78
2023/06/01 02:51:19;;;;;;;11.63;4.90;;;11.20;99.90;;;;;;5020557;28;20038;-78
2023/06/01 02:53:48;;;;;;;11.82;5.00;;;11.10;99.90;;;;;;5019550;28;20045;-78
2023/06/01 02:56:17;;;;;;;14.25;5.88;;;11.10;99.90;;;;;;5018248;28;20049;-78
2023/06/01 02:58:46;;;;;;;15.02;5.30;;;11.00;99.90;;;;;;5017469;28;20050;-78
2023/06/01 03:01:12;;;;;;;13.93;5.35;;;11.00;99.90;;;;;;5020380;28;20045;-77
2023/06/01 03:03:41;;;;;;;12.57;5.35;;;11.00;99.90;;;;;;5032637;28;20045;-78
2023/06/01 03:06:08;;;;;;;19.00;5.90;;;11.00;99.90;;;;;;5035089;28;20037;-77
2023/06/01 03:08:35;;;;;;;12.57;4.80;;;11.00;99.90;;;;;;5036332;28;20041;-78
2023/06/01 03:11:01;;;;;;;17.45;5.80;;;11.00;99.90;;;;;;5016720;28;20034;-77
2023/06/01 03:13:29;;;;;;;11.00;4.93;;;11.00;99.90;;;;;;5032604;28;20040;-77
2023/06/01 03:15:55;;;;;;;15.00;5.38;;;11.00;99.90;;;;;;5034398;28;20046;-81
2023/06/01 03:18:21;;;;;;;10.20;5.22;;;11.00;99.90;;;;;;5033364;28;20033;-77
2023/06/01 03:20:48;;;;;;;13.18;5.35;;;10.90;99.90;;;;;;5019138;28;20053;-77
2023/06/01 03:23:15;;;;;;;13.98;5.72;;;10.90;99.90;;;;;;5014922;28;20042;-77
2023/06/01 03:25:42;;;;;;;12.30;5.05;;;10.90;99.90;;;;;;5034317;28;20107;-77
2023/06/01 03:28:08;;;;;;;9.75;4.80;;;10.90;99.90;;;;;;5036174;28;20080;-78
2023/06/01 03:30:33;;;;;;;13.73;5.25;;;11.00;99.90;;;;;;5019488;28;20048;-78
2023/06/01 03:32:59;;;;;;;12.73;4.85;;;10.90;99.90;;;;;;5033554;28;20458;-77
2023/06/01 03:35:25;;;;;;;12.00;5.28;;;10.90;99.90;;;;;;5019188;28;20042;-78
2023/06/01 03:37:51;;;;;;;12.95;5.15;;;10.90;99.90;;;;;;5036765;28;20041;-79
2023/06/01 03:40:17;;;;;;;11.70;4.72;;;10.90;99.90;;;;;;5019467;28;20703;-77
2023/06/01 03:42:46;;;;;;;7.95;4.47;;;11.00;99.90;;;;;;5019570;28;20080;-77
2023/06/01 03:45:13;;;;;;;10.70;4.20;;;11.00;99.90;;;;;;5020771;28;20541;-77
2023/06/01 03:47:39;;;;;;;11.20;4.03;;;11.00;99.90;;;;;;5038594;28;20061;-78
2023/06/01 03:50:08;;;;;;;7.82;4.28;;;11.00;99.90;;;;;;5018907;28;20083;-78
2023/06/01 03:52:35;;;;;;;11.57;4.13;;;11.00;99.90;;;;;;5029561;28;20037;-78
2023/06/01 03:55:04;;;;;;;9.35;4.13;;;11.00;99.90;;;;;;5035664;28;20524;-78
2023/06/01 03:57:30;;;;;;;10.80;4.20;;;11.00;99.90;;;;;;5036577;28;20049;-78
2023/06/01 03:59:56;;;;;;;11.70;3.70;;;11.00;99.90;;;;;;5017384;28;20044;-78
2023/06/01 04:02:22;;;;;;;7.03;2.97;;;11.00;99.90;;;;;;5019645;28;20071;-78
2023/06/01 04:04:48;;;;;;;9.57;3.60;;;11.00;99.90;;;;;;5032474;28;20046;-78
2023/06/01 04:07:21;;;;;;;10.60;3.53;;;11.10;99.90;;;;;;5031952;28;20044;-78
2023/06/01 04:09:50;;;;;;;8.05;3.22;;;11.10;99.90;;;;;;4999999;28;20042;-78
2023/06/01 04:12:16;;;;;;;9.88;3.40;;;11.10;99.90;;;;;;5031375;28;20107;-78
2023/06/01 04:14:41;;;;;;;7.10;3.35;;;11.10;99.90;;;;;;5018906;28;20042;-78
2023/06/01 04:17:07;;;;;;;11.63;4.10;;;11.10;99.90;;;;;;5018483;28;20104;-78
2023/06/01 04:19:34;;;;;;;9.00;4.40;;;11.10;99.90;;;;;;5015804;28;20045;-78
2023/06/01 04:22:00;;;;;;;12.50;3.85;;;11.20;99.90;;;;;;5016992;28;20034;-78
2023/06/01 04:24:26;;;;;;;8.52;4.32;;;11.20;99.90;;;;;;5018077;28;20467;-78
2023/06/01 04:26:52;;;;;;;9.00;4.03;;;11.20;99.90;;;;;;5017978;28;20042;-78
2023/06/01 04:29:21;;;;;;;10.32;3.35;;;11.20;99.90;;;;;;5017415;28;20080;-78
2023/06/01 04:31:47;;;;;;;6.25;3.38;;;11.20;99.90;;;;;;5018104;28;20045;-78
2023/06/01 04:34:12;;;;;;;8.88;4.53;;;11.20;99.90;;;;;;5032428;28;20544;-77
2023/06/01 04:36:39;;;;;;;9.65;4.03;;;11.30;99.90;;;;;;5017420;28;20053;-78
2023/06/01 04:39:08;;;;;;;8.73;4.47;;;11.30;99.90;;;;;;5030365;28;20045;-78
2023/06/01 04:41:35;;;;;;;9.43;3.75;;;11.30;99.90;;;;;;5033604;28;20045;-77
2023/06/01 04:44:05;;;;;;;13.23;4.40;;;11.30;99.90;;;;;;5028472;28;20044;-78
2023/06/01 04:46:31;;;;;;;11.63;4.65;;;11.20;99.90;;;;;;5017456;28;20034;-78
2023/06/01 04:48:58;;;;;;;12.43;4.53;;;11.30;99.90;;;;;;5027157;28;20045;-77
2023/06/01 04:51:24;;;;;;;7.97;3.67;;;11.30;99.90;;;;;;5032895;28;20045;-78
2023/06/01 04:53:52;;;;;;;9.48;4.05;;;11.30;99.90;;;;;;5027160;28;20052;-77
2023/06/01 04:56:19;;;;;;;8.50;3.63;;;11.30;99.90;;;;;;5016534;28;20049;-78
2023/06/01 04:58:48;;;;;;;6.82;3.88;;;11.30;99.90;;;;;;5013417;28;20068;-78
2023/06/01 05:01:17;;;;;;;12.75;4.28;;;11.30;99.90;;;;;;5016291;28;20084;-77
2023/06/01 05:03:45;;;;;;;15.05;4.28;;;11.30;99.90;;;;;;5016407;28;20037;-77
2023/06/01 05:06:12;;;;;;;10.43;3.58;;;11.40;99.90;;;;;;5027349;28;20128;-81
2023/06/01 05:08:42;;;;;;;10.52;4.35;;;11.40;99.90;;;;;;5010927;28;20077;-81
2023/06/01 05:11:09;;;;;;;9.98;4.05;;;11.40;99.90;;;;;;5014019;28;20099;-82
2023/06/01 05:13:36;;;;;;;9.52;3.97;;;11.40;99.90;;;;;;5012260;28;20076;-82
2023/06/01 05:16:07;;;;;;;12.10;4.35;;;11.40;99.90;;;;;;5027628;28;20050;-81
2023/06/01 05:18:34;;;;;;;10.85;4.53;;;11.50;99.90;;;;;;5008858;28;20128;-81
2023/06/01 05:21:00;;;;;;;8.48;4.50;;;11.40;99.90;;;;;;5027583;28;20414;-82
2023/06/01 05:23:26;;;;;;;13.90;4.55;;;11.40;99.90;;;;;;5012285;28;20091;-82
2023/06/01 05:25:59;;;;;;;13.70;4.47;;;11.30;99.90;;;;;;5008984;28;20044;-81
2023/06/01 05:28:25;;;;;;;11.55;4.03;;;11.30;99.90;;;;;;5028733;28;20033;-82
2023/06/01 05:30:52;;;;;;;11.98;4.10;;;11.30;99.90;;;;;;5013362;28;20468;-81
2023/06/01 05:33:20;;;;;;;10.80;4.43;;;11.30;99.90;;;;;;5027827;28;20107;-82
2023/06/01 05:35:46;;;;;;;11.73;4.18;;;11.30;99.90;;;;;;5027777;28;20080;-81
2023/06/01 05:38:12;;;;;;;12.00;4.38;;;11.30;99.90;;;;;;5013030;28;20409;-81
2023/06/01 05:40:38;;;;;;;12.35;4.53;;;11.30;99.90;;;;;;5009224;28;20079;-82
2023/06/01 05:43:04;;;;;;;12.38;4.45;;;11.40;99.90;;;;;;5031201;28;20061;-82
2023/06/01 05:45:30;;;;;;;9.93;4.70;;;11.40;99.90;;;;;;5022468;28;20026;-80
2023/06/01 05:47:55;;;;;;;9.35;4.00;;;11.40;99.90;;;;;;5030415;28;20071;-80
2023/06/01 05:50:21;;;;;;;10.23;4.60;;;11.50;99.90;;;;;;5044965;28;20043;-78
2023/06/01 05:52:47;;;;;;;12.52;4.60;;;11.40;99.90;;;;;;5032793;28;20083;-78
2023/06/01 05:55:13;;;;;;;12.18;5.32;;;11.40;99.90;;;;;;5027669;28;20073;-78
2023/06/01 05:57:39;;;;;;;9.52;4.53;;;11.40;99.90;;;;;;5045118;28;20076;-80
2023/06/01 06:00:10;;;;;;;11.93;4.30;;;11.40;99.90;;;;;;5046277;28;20069;-79
2023/06/01 06:02:36;;;;;;;10.52;4.75;;;11.40;99.90;;;;;;5024211;28;20041;-81
2023/06/01 06:05:03;;;;;;;10.88;4.47;;;11.40;99.90;;;;;;5026508;28;20040;-80
2023/06/01 06:07:29;;;;;;;8.40;3.92;;;11.40;99.90;;;;;;5008075;28;20037;-81
2023/06/01 06:09:55;;;;;;;8.30;3.97;;;11.40;99.90;;;;;;5028039;28;20180;-80
2023/06/01 06:12:21;;;;;;;11.18;4.78;;;11.50;99.90;;;;;;5031613;28;20128;-80
2023/06/01 06:14:48;;;;;;;9.20;3.80;;;11.50;99.90;;;;;;5014254;28;20037;-81
2023/06/01 06:17:15;;;;;;;9.10;3.65;;;11.50;99.90;;;;;;5030395;28;20049;-81
2023/06/01 06:19:43;;;;;;;9.30;4.35;;;11.50;99.90;;;;;;5012966;28;20029;-81
2023/06/01 06:22:09;;;;;;;13.15;5.03;;;11.50;99.90;;;;;;5015963;28;20041;-80
2023/06/01 06:24:35;;;;;;;13.50;4.38;;;11.50;99.90;;;;;;5014254;28;20048;-81
2023/06/01 06:27:01;;;;;;;10.48;4.43;;;11.50;99.90;;;;;;5033755;28;20500;-81
2023/06/01 06:29:27;;;;;;;11.20;4.07;;;11.50;99.90;;;;;;5016650;28;20048;-81
2023/06/01 06:31:53;;;;;;;8.98;4.13;;;11.50;99.90;;;;;;5015987;28;20041;-81
2023/06/01 06:34:19;;;;;;;11.32;3.90;;;11.50;99.90;;;;;;5016387;28;20441;-81
2023/06/01 06:36:46;;;;;;;6.13;3.35;;;11.60;99.90;;;;;;5032936;28;20139;-81
2023/06/01 06:39:12;;;;;;;8.30;3.83;;;11.60;99.90;;;;;;5033458;28;20045;-81
2023/06/01 06:41:41;;;;;;;6.18;3.38;;;11.60;99.90;;;;;;5033035;28;20075;-81
2023/06/01 06:44:06;;;;;;;5.80;3.60;;;11.60;99.90;;;;;;5033093;28;20048;-81
2023/06/01 06:46:32;;;;;;;8.77;3.60;;;11.70;99.90;;;;;;5016555;28;20405;-81
2023/06/01 06:48:58;;;;;;;8.18;3.15;;;11.70;99.90;;;;;;5013794;28;20124;-81
2023/06/01 06:51:23;;;;;;;6.75;3.70;;;11.70;99.90;;;;;;5016611;28;20037;-80
2023/06/01 06:53:49;;;;;;;9.98;3.63;;;11.70;99.90;;;;;;5014533;28;20113;-80
2023/06/01 06:56:15;;;;;;;6.80;3.80;;;11.70;99.90;;;;;;5032986;28;20048;-80
2023/06/01 06:58:41;;;;;;;7.20;3.60;;;11.70;99.90;;;;;;5033223;28;20044;-81
2023/06/01 07:01:07;;;;;;;6.90;3.75;;;11.70;99.90;;;;;;5027312;28;20037;-79
2023/06/01 07:03:33;;;;;;;7.03;3.25;;;11.80;99.90;;;;;;5034714;28;20045;-79
2023/06/01 07:05:59;;;;;;;10.85;4.07;;;11.80;99.90;;;;;;5051178;28;20041;-78
2023/06/01 07:08:26;;;;;;;11.13;4.05;;;11.80;99.90;;;;;;5032393;28;20129;-78
2023/06/01 07:10:55;;;;;;;11.20;3.58;;;11.90;99.90;;;;;;5034222;28;20046;-78
2023/06/01 07:13:22;;;;;;;9.82;4.15;;;11.90;99.90;;;;;;5051217;28;20033;-79
2023/06/01 07:15:47;;;;;;;8.52;4.07;;;11.90;99.90;;;;;;5014695;28;20045;-80
2023/06/01 07:18:13;;;;;;;9.25;3.70;;;12.00;99.90;;;;;;5047773;28;20106;-77
2023/06/01 07:20:40;;;;;;;7.82;3.15;;;12.10;99.90;;;;;;5034448;28;20045;-78
2023/06/01 07:23:06;;;;;;;10.40;4.28;;;12.10;99.90;;;;;;5050726;28;20052;-78
2023/06/01 07:25:32;;;;;;;7.82;3.78;;;12.10;99.90;;;;;;5033161;28;20033;-78
2023/06/01 07:27:58;;;;;;;8.50;4.03;;;12.10;99.90;;;;;;5033233;28;20041;-78
2023/06/01 07:30:23;;;;;;;7.68;3.67;;;12.20;99.90;;;;;;5028894;28;20042;-78
2023/06/01 07:32:49;;;;;;;7.15;3.17;;;12.20;99.90;;;;;;5033300;28;20036;-79
2023/06/01 07:35:18;;;;;;;11.15;3.45;;;12.30;99.90;;;;;;5032539;28;20037;-77
2023/06/01 07:37:45;;;;;;;11.60;3.67;;;12.30;99.90;;;;;;5049393;28;20057;-79
2023/06/01 07:40:12;;;;;;;7.80;3.15;;;12.30;99.90;;;;;;5047893;28;20037;-77
2023/06/01 07:42:38;;;;;;;8.15;3.92;;;12.40;99.90;;;;;;5034595;28;20120;-78
2023/06/01 07:45:05;;;;;;;8.13;3.70;;;12.40;99.90;;;;;;5035565;28;20048;-77
2023/06/01 07:47:31;;;;;;;10.65;3.47;;;12.40;99.90;;;;;;5034624;28;20033;-79
2023/06/01 07:49:57;;;;;;;9.73;4.82;;;12.50;99.90;;;;;;5050460;28;20068;-77
2023/06/01 07:52:23;;;;;;;9.75;3.00;;;12.60;99.90;;;;;;5033970;28;20045;-77
2023/06/01 07:54:49;;;;;;;6.53;3.05;;;12.70;99.90;;;;;;5047388;28;20049;-77
2023/06/01 07:57:16;;;;;;;5.07;2.70;;;12.80;99.90;;;;;;5032356;28;20041;-77
2023/06/01 07:59:42;;;;;;;7.32;2.60;;;12.80;99.90;;;;;;5031377;28;20928;-78
2023/06/01 08:02:08;;;;;;;8.00;2.35;;;12.90;99.90;;;;;;5045667;28;20033;-78
2023/06/01 08:04:34;;;;;;;5.32;2.53;;;12.90;99.90;;;;;;5033396;28;20400;-79
2023/06/01 08:07:02;;;;;;;4.55;2.30;;;12.90;99.90;;;;;;5019036;28;20047;-78
2023/06/01 08:09:30;;;;;;;6.18;2.63;;;12.90;99.90;;;;;;5018460;28;20044;-78
2023/06/01 08:11:56;;;;;;;5.85;2.20;;;12.80;99.90;;;;;;5030623;28;20100;-78
2023/06/01 08:14:22;;;;;;;6.60;2.58;;;12.80;99.90;;;;;;5017189;28;20417;-78
2023/06/01 08:16:47;;;;;;;7.07;2.90;;;12.80;99.90;;;;;;5018681;28;20099;-78
2023/06/01 08:19:13;;;;;;;6.35;2.90;;;12.80;99.90;;;;;;5031655;28;20101;-78
2023/06/01 08:21:41;;;;;;;4.95;2.45;;;12.90;99.90;;;;;;5019058;28;20362;-78
2023/06/01 08:24:08;;;;;;;7.20;2.38;;;12.90;99.90;;;;;;5015558;28;20076;-77
2023/06/01 08:26:35;;;;;;;7.60;2.55;;;13.00;99.90;;;;;;5033669;28;20046;-78
2023/06/01 08:29:00;;;;;;;7.47;2.92;;;13.00;99.90;;;;;;5033250;28;20037;-78
2023/06/01 08:31:26;;;;;;;8.43;2.60;;;13.00;99.90;;;;;;5032236;28;20033;-77
2023/06/01 08:33:53;;;;;;;4.43;2.17;;;13.10;99.90;;;;;;5017697;28;20041;-79
2023/06/01 08:36:20;;;;;;;4.97;2.20;;;13.20;99.90;;;;;;5016424;28;20033;-77
2023/06/01 08:38:46;;;;;;;4.72;1.67;;;13.20;99.90;;;;;;5032647;28;20061;-77
2023/06/01 08:41:30;;;;;;;6.00;1.52;;;13.20;99.90;;;;;;5017315;28;20474;-78
2023/06/01 08:44:04;;;;;;;3.88;1.77;;;13.30;99.90;;;;;;5017066;28;20073;-78
2023/06/01 08:46:36;;;;;;;6.18;1.50;;;13.30;99.90;;;;;;5032374;28;20065;-77
2023/06/01 08:49:02;;;;;;;4.38;1.35;;;13.30;99.90;;;;;;5047628;28;20029;-80
2023/06/01 08:51:31;;;;;;;2.92;1.30;;;13.40;99.90;;;;;;5033371;28;20044;-77
2023/06/01 08:54:00;;;;;;;3.30;1.38;;;13.50;99.90;;;;;;5032405;28;20028;-78
2023/06/01 08:56:27;;;;;;;5.43;1.73;;;13.50;99.90;;;;;;5047774;28;20034;-77
2023/06/01 08:58:55;;;;;;;2.63;1.20;;;13.40;99.90;;;;;;5028512;28;20458;-78
2023/06/01 09:01:22;;;;;;;4.13;1.58;;;13.40;99.90;;;;;;5050415;28;20556;-78
2023/06/01 09:03:50;;;;;;;2.85;1.25;;;13.40;99.90;;;;;;5046163;28;20049;-77
2023/06/01 09:06:19;;;;;;;3.67;1.77;;;13.30;99.90;;;;;;5032525;28;20584;-78
2023/06/01 09:08:45;;;;;;;3.25;1.40;;;13.30;99.90;;;;;;5048387;28;20044;-77
2023/06/01 09:11:11;;;;;;;4.05;1.70;;;13.40;99.90;;;;;;5047550;28;20120;-77
2023/06/01 09:13:39;;;;;;;6.78;1.80;;;13.40;99.90;;;;;;5050267;28;20060;-77
2023/06/01 09:16:06;;;;;;;5.97;2.00;;;13.50;99.90;;;;;;5030331;28;20054;-77
2023/06/01 09:18:32;;;;;;;4.32;1.10;;;13.70;99.90;;;;;;5024254;28;20431;-77
2023/06/01 09:21:15;;;;;;;3.63;1.23;;;13.70;99.90;;;;;;5015108;28;20063;-77
2023/06/01 09:23:42;;;;;;;2.70;1.00;;;13.60;99.90;;;;;;5014749;28;20516;-78
2023/06/01 09:26:12;;;;;;;4.55;1.23;;;13.60;99.90;;;;;;5012219;28;20046;-77
2023/06/01 09:28:56;;;;;;;3.05;0.80;;;13.60;99.90;;;;;;5014975;28;20050;-77
2023/06/01 09:31:42;;;;;;;1.08;0.50;;;13.50;99.90;;;;;;5029963;28;20407;-77
2023/06/01 09:34:15;;;;;;;1.95;0.80;;;13.50;99.90;;;;;;5030767;28;20185;-77
2023/06/01 09:36:41;;;;;;;1.97;0.63;;;13.40;99.90;;;;;;5031115;28;20041;-77
2023/06/01 09:39:14;;;;;;;1.50;0.80;;;13.40;99.90;;;;;;5031978;28;20049;-77
2023/06/01 09:41:55;;;;;;;3.78;0.80;;;13.30;99.90;;;;;;5028037;28;20067;-78
2023/06/01 09:44:32;;;;;;;1.50;0.50;;;13.20;99.90;;;;;;5027927;28;20416;-77
2023/06/01 09:47:04;;;;;;;1.75;0.50;;;13.30;99.90;;;;;;5030034;28;20060;-77
2023/06/01 09:49:31;;;;;;;2.75;0.60;;;13.30;99.90;;;;;;5028326;28;20041;-79
2023/06/01 09:52:06;;;;;;;2.30;0.52;;;13.40;99.90;;;;;;5012703;28;20068;-76
2023/06/01 09:54:44;;;;;;;2.25;0.40;;;13.40;99.90;;;;;;5022854;28;20045;-76
2023/06/01 09:57:11;;;;;;;1.65;0.60;;;13.50;99.90;;;;;;5012845;28;20045;-77
2023/06/01 09:59:48;;;;;;;4.13;1.30;;;13.50;99.90;;;;;;5030050;28;20068;-79
2023/06/01 10:02:21;;;;;;;3.05;1.70;;;13.50;99.90;;;;;;5009066;28;20543;-77
2023/06/01 10:04:55;;;;;;;7.28;2.00;;;13.50;99.90;;;;;;5013245;28;20037;-77
2023/06/01 10:07:22;;;;;;;7.32;2.45;;;13.50;99.90;;;;;;5044955;28;20525;-77
2023/06/01 10:09:51;;;;;;;6.60;2.85;;;13.40;99.90;;;;;;5028755;28;20042;-77
2023/06/01 10:12:17;;;;;;;6.53;3.00;;;13.30;99.90;;;;;;5014678;28;20045;-77
2023/06/01 10:14:43;;;;;;;6.10;2.60;;;13.30;99.90;;;;;;5030435;28;20749;-78
2023/06/01 10:17:11;;;;;;;6.45;2.40;;;13.30;99.90;;;;;;5013860;28;20645;-77
2023/06/01 10:19:38;;;;;;;6.28;2.50;;;13.30;99.90;;;;;;5013400;28;20129;-77
2023/06/01 10:22:05;;;;;;;9.43;3.35;;;13.30;99.90;;;;;;5024644;28;20052;-79
2023/06/01 10:24:32;;;;;;;8.88;2.65;;;13.40;99.90;;;;;;5027031;28;20092;-78
2023/06/01 10:27:25;;;;;;;5.75;2.60;;;13.40;99.90;;;;;;5028152;28;20129;-76
2023/06/01 10:29:53;;;;;;;9.68;2.58;;;13.40;99.90;;;;;;5011921;28;20462;-78
2023/06/01 10:32:37;;;;;;;8.27;2.67;;;13.40;99.90;;;;;;5030320;28;20080;-77
2023/06/01 10:35:07;;;;;;;6.20;2.30;;;13.40;99.90;;;;;;5009637;28;20107;-76
2023/06/01 10:37:34;;;;;;;8.73;2.40;;;13.40;99.90;;;;;;5026245;28;20143;-77
2023/06/01 10:40:24;;;;;;;10.95;2.85;;;13.30;99.90;;;;;;5008478;28;20059;-77
2023/06/01 10:42:50;;;;;;;10.85;3.03;;;13.40;99.90;;;;;;5023566;28;20045;-77
2023/06/01 10:45:35;;;;;;;7.70;2.50;;;13.50;99.90;;;;;;5023058;28;20045;-77
2023/06/01 10:48:10;;;;;;;10.73;3.58;;;13.50;99.90;;;;;;5038406;28;20038;-77
2023/06/01 10:50:36;;;;;;;9.10;2.60;;;13.60;99.90;;;;;;5025489;28;20050;-76
2023/06/01 10:53:28;;;;;;;8.35;2.83;;;13.70;99.90;;;;;;5026622;28;20048;-76
2023/06/01 10:56:26;;;;;;;12.23;3.30;;;13.80;99.90;;;;;;5027823;28;20409;-77
2023/06/01 10:59:08;;;;;;;9.60;2.83;;;13.80;99.90;;;;;;5017097;28;20030;-77
2023/06/01 11:01:38;;;;;;;7.97;3.00;;;13.70;99.90;;;;;;5028537;28;20037;-77
2023/06/01 11:04:05;;;;;;;6.97;2.50;;;13.60;99.90;;;;;;5026704;28;20064;-78
2023/06/01 11:06:35;;;;;;;8.50;2.70;;;13.60;99.90;;;;;;5032791;28;20049;-78
2023/06/01 11:09:06;;;;;;;8.48;2.70;;;13.60;99.90;;;;;;5028437;28;20381;-79
2023/06/01 11:11:55;;;;;;;12.93;2.95;;;13.60;99.90;;;;;;5012802;28;20050;-79
2023/06/01 11:14:30;;;;;;;10.50;2.70;;;13.60;99.90;;;;;;5031868;28;20061;-79
2023/06/01 11:17:25;;;;;;;9.90;2.65;;;13.60;99.90;;;;;;5026063;28;20041;-79
2023/06/01 11:20:01;;;;;;;9.90;2.45;;;13.60;99.90;;;;;;5015729;28;20494;-79
2023/06/01 11:22:35;;;;;;;14.60;3.15;;;13.70;99.90;;;;;;5016442;28;20123;-78
2023/06/01 11:25:05;;;;;;;8.10;1.88;;;13.70;99.90;;;;;;5031733;28;20048;-79
2023/06/01 11:27:31;;;;;;;6.95;2.50;;;13.70;99.90;;;;;;5014028;28;20041;-79
2023/06/01 11:29:57;;;;;;;6.78;1.95;;;13.70;99.90;;;;;;5015905;28;20045;-79
2023/06/01 11:32:25;;;;;;;7.53;2.00;;;13.80;99.90;;;;;;5015693;28;20049;-79
2023/06/01 11:34:51;;;;;;;11.15;2.60;;;13.80;99.90;;;;;;5011780;28;20613;-79
2023/06/01 11:37:21;;;;;;;5.85;1.85;;;13.80;99.90;;;;;;5014995;28;20501;-81
2023/06/01 11:39:48;;;;;;;8.55;2.47;;;13.90;99.90;;;;;;5014316;28;20104;-80
2023/06/01 11:42:16;;;;;;;10.40;2.78;;;14.10;99.90;;;;;;5030936;28;20486;-81
2023/06/01 11:44:55;;;;;;;8.18;2.80;;;14.20;99.90;;;;;;5012038;28;20045;-81
2023/06/01 11:47:21;;;;;;;8.07;2.28;;;14.30;99.90;;;;;;5012492;28;20116;-81
2023/06/01 11:49:51;;;;;;;6.75;2.33;;;14.40;99.90;;;;;;5014073;28;20037;-80
2023/06/01 11:52:18;;;;;;;10.18;1.83;;;14.50;99.90;;;;;;5014413;28;20056;-80
2023/06/01 11:54:45;;;;;;;8.50;2.17;;;14.50;99.90;;;;;;5032680;28;20115;-80
2023/06/01 11:57:11;;;;;;;7.63;2.10;;;14.50;99.90;;;;;;5015719;28;20413;-80
2023/06/01 11:59:41;;;;;;;7.18;2.03;;;14.50;99.90;;;;;;5015129;28;20060;-80
2023/06/01 12:02:26;;;;;;;6.35;1.70;;;14.60;99.90;;;;;;5013309;28;20065;-80
2023/06/01 12:04:57;;;;;;;;;;;14.70;99.90;;;;;;5028676;28;20049;-80
2023/06/01 12:07:23;;;;;;;7.43;3.03;;;14.60;99.90;;;;;;5015177;28;19924;-80
2023/06/01 12:09:54;;;;;;;10.45;3.53;;;14.70;99.90;;;;;;5030043;28;20059;-80
2023/06/01 12:12:24;;;;;;;5.60;1.60;;;14.90;99.90;;;;;;5014420;28;20143;-80
2023/06/01 12:14:51;;;;;;;9.57;2.53;;;14.90;99.90;;;;;;5030551;28;20041;-80
2023/06/01 12:17:18;;;;;;;7.68;2.42;;;14.90;99.90;;;;;;5030996;28;20041;-80
2023/06/01 12:19:48;;;;;;;8.73;2.28;;;14.90;99.90;;;;;;5028457;28;20041;-80
2023/06/01 12:22:15;;;;;;;8.30;2.30;;;14.90;99.90;;;;;;5013928;28;20092;-80
2023/06/01 12:24:41;;;;;;;11.20;3.05;;;14.90;99.90;;;;;;5011445;28;20049;-81
2023/06/01 12:27:19;;;;;;;32.08;20.10;;;15.00;99.90;;;;;;5012446;28;20049;-80
2023/06/01 12:29:50;;;;;;;11.32;4.10;;;15.00;99.90;;;;;;5026877;28;20041;-80
2023/06/01 12:32:19;;;;;;;7.45;2.33;;;14.90;99.90;;;;;;5027126;28;20046;-79
2023/06/01 12:35:03;;;;;;;6.78;2.20;;;14.90;99.90;;;;;;5011907;28;20047;-80
2023/06/01 12:37:29;;;;;;;19.48;13.68;;;14.80;99.90;;;;;;5012916;28;20139;-82
2023/06/01 12:39:56;;;;;;;14.38;8.45;;;14.60;99.90;;;;;;5013871;28;20041;-80
2023/06/01 12:42:36;;;;;;;4.72;2.22;;;14.50;99.90;;;;;;5030505;28;20127;-80
2023/06/01 12:45:03;;;;;;;4.15;1.90;;;14.50;99.90;;;;;;5009712;28;20045;-81
2023/06/01 12:47:36;;;;;;;5.78;2.10;;;14.60;99.90;;;;;;5029189;28;20515;-80
2023/06/01 12:50:10;;;;;;;9.20;2.05;;;14.70;99.90;;;;;;5028592;28;20041;-81
2023/06/01 12:52:36;;;;;;;7.40;1.67;;;14.80;99.90;;;;;;5027881;28;20108;-79
2023/06/01 12:55:05;;;;;;;9.73;2.53;;;14.80;99.90;;;;;;5013291;28;20133;-79